createdAt,value
2022-09-26T00:00:48.799Z,1.02
2022-09-26T00:03:15.389Z,0.98
2022-09-26T00:05:41.965Z,0.93
2022-09-26T00:08:08.509Z,0.90
2022-09-26T00:10:35.114Z,0.85
2022-09-26T00:13:01.759Z,0.77
2022-09-26T00:15:28.396Z,1.00
2022-09-26T00:17:54.958Z,1.08
2022-09-26T00:20:21.522Z,1.05
2022-09-26T00:22:48.070Z,0.85
2022-09-26T00:25:14.598Z,1.00
2022-09-26T00:27:41.123Z,0.70
2022-09-26T00:30:08.187Z,0.95
2022-09-26T00:32:34.757Z,1.05
2022-09-26T00:35:01.321Z,0.70
2022-09-26T00:37:27.878Z,1.00
2022-09-26T00:39:54.439Z,1.10
2022-09-26T00:42:22.423Z,0.65
2022-09-26T00:44:50.355Z,0.90
2022-09-26T00:47:29.366Z,1.08
2022-09-26T00:50:01.405Z,1.17
2022-09-26T00:52:36.652Z,1.00
2022-09-26T00:55:07.041Z,0.88
2022-09-26T00:57:39.930Z,0.98
2022-09-26T01:00:11.366Z,0.77
2022-09-26T01:02:39.175Z,1.25
2022-09-26T01:05:08.140Z,1.17
2022-09-26T01:07:35.339Z,1.08
2022-09-26T01:10:05.295Z,0.90
2022-09-26T01:12:32.532Z,1.13
2022-09-26T01:14:59.559Z,1.33
2022-09-26T01:17:26.608Z,1.20
2022-09-26T01:20:30.790Z,1.75
2022-09-26T01:23:42.511Z,1.20
2022-09-26T01:26:27.781Z,1.55
2022-09-26T01:29:25.378Z,1.33
2022-09-26T01:32:27.217Z,1.45
2022-09-26T01:35:16.130Z,1.40
2022-09-26T01:38:09.896Z,1.73
2022-09-26T01:41:03.996Z,1.95
2022-09-26T01:43:43.305Z,2.00
2022-09-26T01:46:12.913Z,2.20
2022-09-26T01:48:48.400Z,2.17
2022-09-26T01:51:28.431Z,1.80
2022-09-26T01:54:05.633Z,2.30
2022-09-26T01:56:36.945Z,2.45
2022-09-26T01:59:16.882Z,2.63
2022-09-26T02:01:50.881Z,2.70
2022-09-26T02:04:22.824Z,2.38
2022-09-26T02:07:00.041Z,2.30
2022-09-26T02:09:29.327Z,2.25
2022-09-26T02:12:01.376Z,2.50
2022-09-26T02:14:36.337Z,2.65
2022-09-26T02:17:16.746Z,2.47
2022-09-26T02:19:56.225Z,3.22
2022-09-26T02:22:30.367Z,2.88
2022-09-26T02:24:57.414Z,3.40
2022-09-26T02:27:26.691Z,2.70
2022-09-26T02:29:53.961Z,3.22
2022-09-26T02:32:27.013Z,3.65
2022-09-26T02:34:55.560Z,3.10
2022-09-26T02:37:24.282Z,3.22
2022-09-26T02:39:53.164Z,2.65
2022-09-26T02:42:35.158Z,3.33
2022-09-26T02:45:20.644Z,2.80
2022-09-26T02:48:14.013Z,2.35
2022-09-26T02:50:48.084Z,2.72
2022-09-26T02:53:16.812Z,2.63
2022-09-26T02:56:14.442Z,2.15
2022-09-26T02:58:44.537Z,2.08
2022-09-26T03:01:22.502Z,1.67
2022-09-26T03:04:15.414Z,1.97
2022-09-26T03:06:46.838Z,2.13
2022-09-26T03:09:16.332Z,1.50
2022-09-26T03:11:44.408Z,1.60
2022-09-26T03:14:13.137Z,1.90
2022-09-26T03:16:44.471Z,1.55
2022-09-26T03:19:27.283Z,1.60
2022-09-26T03:21:54.503Z,1.73
2022-09-26T03:24:23.612Z,1.90
2022-09-26T03:26:50.646Z,1.27
2022-09-26T03:29:19.881Z,1.15
2022-09-26T03:31:50.296Z,1.50
2022-09-26T03:34:18.413Z,1.30
2022-09-26T03:36:46.105Z,1.60
2022-09-26T03:39:14.077Z,1.77
2022-09-26T03:42:10.463Z,1.38
2022-09-26T03:44:38.306Z,1.42
2022-09-26T03:47:34.219Z,1.40
2022-09-26T03:50:05.699Z,1.52
2022-09-26T03:52:32.300Z,1.77
2022-09-26T03:54:58.893Z,1.48
2022-09-26T03:57:25.483Z,1.70
2022-09-26T03:59:57.616Z,1.30
2022-09-26T04:02:29.637Z,2.00
2022-09-26T04:05:11.967Z,1.83
2022-09-26T04:07:38.522Z,1.80
2022-09-26T04:10:05.636Z,2.35
2022-09-26T04:12:33.317Z,1.88
2022-09-26T04:14:59.885Z,1.90
2022-09-26T04:17:26.484Z,1.42
2022-09-26T04:19:53.080Z,2.22
2022-09-26T04:22:19.611Z,2.10
2022-09-26T04:24:46.180Z,1.13
2022-09-26T04:27:15.291Z,1.35
2022-09-26T04:29:45.125Z,1.40
2022-09-26T04:32:17.427Z,1.60
2022-09-26T04:35:07.523Z,1.38
2022-09-26T04:37:37.035Z,1.67
2022-09-26T04:40:04.618Z,1.55
2022-09-26T04:42:34.781Z,1.38
2022-09-26T04:45:01.435Z,1.60
2022-09-26T04:47:28.010Z,1.20
2022-09-26T04:50:17.507Z,1.33
2022-09-26T04:53:01.692Z,1.27
2022-09-26T04:55:31.012Z,1.48
2022-09-26T04:58:02.026Z,1.42
2022-09-26T05:00:30.003Z,1.67
2022-09-26T05:05:31.276Z,1.50
2022-09-26T05:07:57.893Z,1.63
2022-09-26T05:10:24.585Z,2.17
2022-09-26T05:12:59.552Z,2.00
2022-09-26T05:15:26.114Z,2.05
2022-09-26T05:18:00.061Z,1.58
2022-09-26T05:20:31.376Z,1.38
2022-09-26T05:23:03.157Z,2.03
2022-09-26T05:25:55.698Z,1.67
2022-09-26T05:28:23.346Z,1.90
2022-09-26T05:30:51.792Z,1.88
2022-09-26T05:33:21.742Z,1.90
2022-09-26T05:35:54.765Z,1.83
2022-09-26T05:38:21.680Z,1.83
2022-09-26T05:40:57.427Z,1.80
2022-09-26T05:43:30.692Z,2.10
2022-09-26T05:45:59.205Z,1.85
2022-09-26T05:51:10.949Z,1.67
2022-09-26T05:53:41.221Z,2.53
2022-09-26T05:56:08.978Z,2.65
2022-09-26T05:59:00.537Z,3.20
2022-09-26T06:01:46.872Z,3.25
2022-09-26T06:04:25.972Z,3.17
2022-09-26T06:07:12.471Z,3.20
2022-09-26T06:09:39.286Z,3.10
2022-09-26T06:12:19.566Z,3.15
2022-09-26T06:14:46.716Z,3.42
2022-09-26T06:17:13.594Z,3.20
2022-09-26T06:19:40.218Z,3.33
2022-09-26T06:22:07.284Z,3.05
2022-09-26T06:24:33.880Z,2.70
2022-09-26T06:27:01.035Z,2.70
2022-09-26T06:29:27.837Z,2.83
2022-09-26T06:31:54.529Z,3.05
2022-09-26T06:34:27.164Z,2.50
2022-09-26T06:37:19.563Z,2.15
2022-09-26T06:39:49.156Z,2.65
2022-09-26T06:42:15.742Z,2.40
2022-09-26T06:45:14.843Z,2.10
2022-09-26T06:48:07.514Z,2.53
2022-09-26T06:51:00.450Z,2.42
2022-09-26T06:53:29.265Z,2.42
2022-09-26T06:55:59.228Z,2.45
2022-09-26T06:58:27.600Z,2.33
2022-09-26T07:01:06.827Z,2.83
2022-09-26T07:03:54.428Z,3.13
2022-09-26T07:06:44.243Z,2.40
2022-09-26T07:09:12.674Z,2.20
2022-09-26T07:12:15.780Z,2.30
2022-09-26T07:14:43.517Z,2.13
2022-09-26T07:17:23.177Z,2.00
2022-09-26T07:20:17.774Z,2.30
2022-09-26T07:23:11.258Z,2.47
2022-09-26T07:25:42.463Z,2.00
2022-09-26T07:28:10.040Z,1.88
2022-09-26T07:30:46.018Z,2.35
2022-09-26T07:33:24.445Z,2.40
2022-09-26T07:35:52.446Z,2.42
2022-09-26T07:38:20.823Z,1.65
2022-09-26T07:40:53.795Z,1.65
2022-09-26T07:43:31.974Z,1.52
2022-09-26T07:46:26.889Z,1.90
2022-09-26T07:49:14.378Z,1.02
2022-09-26T07:52:00.632Z,1.20
2022-09-26T07:54:40.034Z,1.50
2022-09-26T07:57:35.372Z,1.10
2022-09-26T08:00:12.687Z,1.75
2022-09-26T08:02:50.827Z,1.27
2022-09-26T08:05:20.267Z,1.35
2022-09-26T08:07:49.317Z,0.95
2022-09-26T08:10:35.328Z,1.40
2022-09-26T08:13:21.029Z,0.88
2022-09-26T08:16:05.629Z,0.98
2022-09-26T08:18:36.640Z,1.08
2022-09-26T08:21:07.165Z,1.20
2022-09-26T08:23:34.249Z,0.80
2022-09-26T08:26:26.960Z,0.90
2022-09-26T08:29:00.061Z,1.00
2022-09-26T08:31:26.805Z,1.02
2022-09-26T08:33:53.991Z,0.98
2022-09-26T08:36:21.525Z,1.42
2022-09-26T08:39:10.888Z,1.33
2022-09-26T08:42:20.966Z,1.10
2022-09-26T08:45:47.467Z,1.48
2022-09-26T08:48:50.536Z,1.40
2022-09-26T08:51:17.231Z,1.50
2022-09-26T08:53:52.074Z,1.60
2022-09-26T08:56:31.117Z,1.35
2022-09-26T08:59:03.525Z,1.40
2022-09-26T09:01:39.400Z,1.40
2022-09-26T09:04:20.338Z,1.73
2022-09-26T09:06:54.952Z,1.77
2022-09-26T09:09:21.795Z,1.45
2022-09-26T09:12:14.772Z,1.67
2022-09-26T09:15:25.340Z,1.77
2022-09-26T09:18:21.288Z,1.80
2022-09-26T09:21:16.418Z,1.42
2022-09-26T09:24:11.075Z,1.20
2022-09-26T09:30:17.480Z,1.13
2022-09-26T09:33:00.608Z,1.15
2022-09-26T09:35:59.195Z,1.20
2022-09-26T09:38:49.057Z,1.05
2022-09-26T09:41:38.642Z,1.25
2022-09-26T09:44:17.396Z,0.90
2022-09-26T09:46:44.459Z,1.08
2022-09-26T09:49:22.905Z,0.90
2022-09-26T09:52:13.629Z,1.42
2022-09-26T09:55:06.947Z,1.38
2022-09-26T10:00:20.129Z,1.13
2022-09-26T10:03:22.994Z,1.02
2022-09-26T10:05:59.670Z,0.98
2022-09-26T10:08:41.303Z,0.73
2022-09-26T10:11:41.471Z,0.80
2022-09-26T10:14:31.355Z,1.05
2022-09-26T10:17:09.454Z,0.90
2022-09-26T10:19:45.105Z,0.57
2022-09-26T10:22:30.400Z,0.40
2022-09-26T10:25:15.585Z,0.52
2022-09-26T10:27:51.605Z,0.65
2022-09-26T10:30:21.122Z,0.30
2022-09-26T10:32:57.186Z,0.50
2022-09-26T10:36:04.913Z,0.50
2022-09-26T10:39:16.161Z,0.43
2022-09-26T10:41:46.473Z,0.40
2022-09-26T10:44:28.372Z,0.57
2022-09-26T10:47:13.189Z,0.60
2022-09-26T10:50:06.440Z,0.38
2022-09-26T10:52:56.315Z,0.40
2022-09-26T10:55:43.752Z,0.50
2022-09-26T10:58:17.673Z,0.35
2022-09-26T11:00:49.284Z,0.30
2022-09-26T11:03:33.564Z,0.43
2022-09-26T11:06:28.861Z,0.60
2022-09-26T11:09:04.528Z,0.50
2022-09-26T11:11:52.297Z,0.40
2022-09-26T11:14:31.211Z,0.50
2022-09-26T11:17:03.291Z,0.40
2022-09-26T11:19:57.449Z,0.60
2022-09-26T11:22:42.433Z,0.60
2022-09-26T11:28:15.875Z,0.40
2022-09-26T11:37:22.091Z,0.52
2022-09-26T11:40:10.055Z,0.73
2022-09-26T11:43:03.491Z,0.68
2022-09-26T11:45:40.850Z,0.50
2022-09-26T11:49:06.393Z,0.80
2022-09-26T11:52:03.656Z,0.90
2022-09-26T11:54:59.739Z,0.80
2022-09-26T11:57:51.260Z,0.88
2022-09-26T12:00:26.532Z,0.80
2022-09-26T12:03:17.040Z,1.00
2022-09-26T12:05:44.196Z,0.90
2022-09-26T12:08:47.191Z,0.60
2022-09-26T12:11:23.456Z,0.95
2022-09-26T12:14:16.234Z,0.70
2022-09-26T12:16:58.380Z,0.77
2022-09-26T12:19:40.111Z,0.82
2022-09-26T12:22:31.646Z,0.88
2022-09-26T12:25:25.852Z,0.60
2022-09-26T12:27:59.198Z,0.60
2022-09-26T12:30:38.645Z,0.70
2022-09-26T12:33:26.248Z,0.55
2022-09-26T12:36:09.014Z,0.80
2022-09-26T12:38:59.894Z,0.93
2022-09-26T12:41:40.679Z,0.75
2022-09-26T12:44:22.215Z,0.60
2022-09-26T12:47:14.795Z,0.50
2022-09-26T12:50:03.802Z,0.70
2022-09-26T12:52:58.467Z,0.80
2022-09-26T12:55:36.239Z,0.80
2022-09-26T12:58:26.566Z,0.57
2022-09-26T13:01:09.238Z,0.60
2022-09-26T13:04:14.255Z,0.55
2022-09-26T13:07:18.829Z,0.68
2022-09-26T13:10:11.929Z,0.77
2022-09-26T13:13:07.123Z,0.60
2022-09-26T13:15:36.773Z,0.80
2022-09-26T13:18:21.897Z,0.60
2022-09-26T13:21:07.379Z,0.47
2022-09-26T13:23:43.625Z,0.65
2022-09-26T13:26:19.642Z,0.73
2022-09-26T13:29:15.763Z,0.70
2022-09-26T13:31:44.848Z,0.40
2022-09-26T13:34:28.209Z,0.60
2022-09-26T13:36:58.984Z,0.77
2022-09-26T13:39:40.044Z,0.57
2022-09-26T13:42:36.339Z,0.73
2022-09-26T13:45:19.455Z,0.65
2022-09-26T13:48:20.786Z,0.47
2022-09-26T13:50:55.987Z,0.50
2022-09-26T13:53:36.360Z,0.63
2022-09-26T13:56:34.056Z,0.50
2022-09-26T13:59:26.066Z,0.60
2022-09-26T14:02:42.659Z,0.68
2022-09-26T14:05:18.353Z,0.73
2022-09-26T14:08:11.152Z,0.43
2022-09-26T14:10:52.529Z,0.60
2022-09-26T14:13:31.789Z,0.60
2022-09-26T14:16:01.335Z,0.38
2022-09-26T14:18:47.167Z,0.50
2022-09-26T14:21:33.419Z,0.70
2022-09-26T14:24:25.753Z,0.60
2022-09-26T14:27:10.320Z,0.52
2022-09-26T14:29:39.784Z,0.38
2022-09-26T14:32:12.355Z,0.70
2022-09-26T14:34:55.047Z,0.50
2022-09-26T14:37:24.690Z,0.50
2022-09-26T14:40:00.233Z,1.80
2022-09-26T14:42:59.073Z,0.50
2022-09-26T14:45:41.406Z,0.45
2022-09-26T14:48:08.049Z,0.50
2022-09-26T14:50:44.245Z,0.90
2022-09-26T14:53:41.451Z,0.95
2022-09-26T14:56:13.795Z,0.90
2022-09-26T14:58:48.393Z,0.70
2022-09-26T15:01:37.509Z,0.70
2022-09-26T15:04:15.615Z,0.70
2022-09-26T15:06:46.500Z,0.70
2022-09-26T15:09:22.913Z,0.43
2022-09-26T15:11:57.303Z,0.55
2022-09-26T15:14:41.085Z,0.60
2022-09-26T15:17:33.635Z,0.60
2022-09-26T15:20:05.694Z,0.30
2022-09-26T15:22:32.337Z,0.50
2022-09-26T15:25:24.808Z,0.40
2022-09-26T15:27:56.160Z,0.50
2022-09-26T15:30:34.255Z,0.55
2022-09-26T15:33:04.733Z,0.60
2022-09-26T15:35:32.342Z,0.45
2022-09-26T15:38:01.315Z,0.60
2022-09-26T15:40:31.251Z,0.40
2022-09-26T15:43:02.962Z,0.60
2022-09-26T15:45:46.267Z,0.60
2022-09-26T15:48:24.864Z,0.77
2022-09-26T15:51:15.901Z,0.60
2022-09-26T15:53:53.442Z,0.45
2022-09-26T15:56:43.014Z,0.52
2022-09-26T15:59:31.467Z,0.32
2022-09-26T16:02:00.146Z,0.60
2022-09-26T16:04:31.403Z,0.60
2022-09-26T16:07:02.075Z,0.50
2022-09-26T16:09:34.831Z,0.50
2022-09-26T16:12:01.382Z,0.40
2022-09-26T16:14:46.885Z,0.30
2022-09-26T16:17:28.173Z,0.40
2022-09-26T16:20:02.720Z,0.70
2022-09-26T16:22:36.397Z,0.50
2022-09-26T16:25:22.707Z,0.43
2022-09-26T16:27:59.356Z,0.38
2022-09-26T16:30:27.109Z,0.50
2022-09-26T16:33:12.944Z,0.47
2022-09-26T16:35:47.732Z,0.50
2022-09-26T16:38:17.058Z,0.70
2022-09-26T16:40:51.169Z,0.65
2022-09-26T16:43:22.038Z,0.45
2022-09-26T16:45:51.030Z,0.50
2022-09-26T16:48:42.987Z,0.70
2022-09-26T16:51:15.382Z,0.55
2022-09-26T16:53:54.126Z,0.60
2022-09-26T16:56:24.366Z,0.40
2022-09-26T16:58:55.663Z,0.40
2022-09-26T17:01:41.628Z,0.43
2022-09-26T17:04:17.867Z,0.50
2022-09-26T17:06:47.862Z,0.80
2022-09-26T17:09:21.055Z,0.57
2022-09-26T17:11:51.080Z,0.40
2022-09-26T17:14:21.051Z,0.80
2022-09-26T17:16:54.880Z,0.68
2022-09-26T17:19:24.253Z,0.47
2022-09-26T17:21:52.003Z,0.68
2022-09-26T17:24:23.284Z,0.98
2022-09-26T17:27:00.352Z,1.20
2022-09-26T17:29:31.354Z,0.60
2022-09-26T17:32:00.187Z,0.73
2022-09-26T17:34:31.004Z,0.82
2022-09-26T17:36:59.016Z,0.85
2022-09-26T17:39:26.101Z,0.60
2022-09-26T17:41:54.025Z,0.80
2022-09-26T17:44:22.123Z,0.73
2022-09-26T17:46:52.012Z,0.73
2022-09-26T17:49:31.433Z,0.63
2022-09-26T17:52:03.623Z,0.75
2022-09-26T17:54:42.656Z,0.60
2022-09-26T17:57:19.067Z,0.90
2022-09-26T17:59:45.703Z,0.95
2022-09-26T18:02:18.035Z,1.08
2022-09-26T18:04:44.959Z,0.90
2022-09-26T18:07:14.403Z,0.60
2022-09-26T18:09:41.217Z,0.80
2022-09-26T18:12:15.422Z,0.50
2022-09-26T18:14:42.678Z,0.80
2022-09-26T18:17:15.544Z,0.98
2022-09-26T18:19:42.460Z,1.30
2022-09-26T18:22:18.194Z,0.60
2022-09-26T18:24:48.979Z,0.70
2022-09-26T18:27:17.710Z,0.80
2022-09-26T18:29:47.810Z,0.80
2022-09-26T18:32:26.408Z,0.63
2022-09-26T18:34:54.007Z,0.50
2022-09-26T18:37:20.581Z,0.82
2022-09-26T18:39:52.102Z,0.90
2022-09-26T18:42:22.540Z,0.60
2022-09-26T18:44:51.152Z,0.93
2022-09-26T18:47:17.913Z,0.90
2022-09-26T18:49:46.523Z,1.00
2022-09-26T18:52:18.327Z,0.63
2022-09-26T18:54:46.417Z,0.60
2022-09-26T18:57:31.926Z,0.80
2022-09-26T19:00:00.141Z,0.60
2022-09-26T19:02:33.477Z,0.63
2022-09-26T19:05:02.600Z,0.80
2022-09-26T19:07:33.387Z,0.70
2022-09-26T19:10:00.410Z,0.80
2022-09-26T19:12:27.208Z,0.80
2022-09-26T19:14:53.799Z,0.60
2022-09-26T19:17:20.400Z,0.73
2022-09-26T19:19:46.999Z,0.60
2022-09-26T19:22:16.729Z,0.80
2022-09-26T19:24:46.384Z,0.65
2022-09-26T19:27:18.472Z,0.60
2022-09-26T19:29:54.794Z,0.50
2022-09-26T19:32:41.520Z,0.55
2022-09-26T19:35:30.447Z,0.60
2022-09-26T19:37:58.295Z,0.93
2022-09-26T19:40:26.225Z,1.00
2022-09-26T19:42:53.306Z,0.88
2022-09-26T19:45:20.060Z,0.75
2022-09-26T19:47:50.002Z,0.80
2022-09-26T19:50:22.012Z,0.77
2022-09-26T19:52:50.945Z,1.05
2022-09-26T19:55:26.531Z,0.95
2022-09-26T19:57:55.682Z,0.80
2022-09-26T20:00:22.296Z,0.52
2022-09-26T20:02:51.624Z,0.65
2022-09-26T20:05:26.033Z,0.88
2022-09-26T20:07:52.970Z,0.88
2022-09-26T20:10:22.589Z,0.80
2022-09-26T20:12:49.397Z,1.05
2022-09-26T20:15:20.093Z,0.80
2022-09-26T20:17:47.622Z,0.67
2022-09-26T20:20:21.048Z,0.68
2022-09-26T20:22:48.340Z,0.68
2022-09-26T20:25:27.172Z,0.68
2022-09-26T20:27:55.239Z,0.70
2022-09-26T20:30:41.237Z,0.73
2022-09-26T20:33:10.299Z,0.70
2022-09-26T20:35:43.135Z,0.60
2022-09-26T20:38:28.014Z,0.63
2022-09-26T20:41:02.624Z,0.40
2022-09-26T20:43:34.838Z,0.70
2022-09-26T20:46:09.501Z,0.60
2022-09-26T20:48:37.471Z,0.50
2022-09-26T20:51:06.096Z,0.50
2022-09-26T20:53:32.785Z,0.50
2022-09-26T20:55:59.375Z,0.70
2022-09-26T20:58:26.025Z,0.63
2022-09-26T21:00:53.260Z,0.60
2022-09-26T21:03:21.943Z,0.57
2022-09-26T21:05:48.559Z,1.00
2022-09-26T21:08:26.041Z,0.73
2022-09-26T21:10:53.391Z,0.55
2022-09-26T21:13:19.974Z,0.50
2022-09-26T21:15:46.687Z,0.38
2022-09-26T21:18:25.457Z,0.30
2022-09-26T21:20:52.957Z,0.63
2022-09-26T21:23:23.227Z,0.50
2022-09-26T21:25:50.469Z,0.47
2022-09-26T21:28:27.641Z,0.60
2022-09-26T21:30:58.296Z,0.75
2022-09-26T21:33:25.361Z,0.33
2022-09-26T21:35:52.737Z,0.40
2022-09-26T21:38:20.524Z,0.60
2022-09-26T21:40:52.317Z,0.45
2022-09-26T21:43:23.204Z,0.50
2022-09-26T21:45:49.873Z,0.40
2022-09-26T21:48:17.066Z,0.43
2022-09-26T21:50:51.968Z,0.50
2022-09-26T21:53:28.935Z,0.50
2022-09-26T21:56:03.665Z,0.30
2022-09-26T21:58:38.032Z,0.43
2022-09-26T22:01:04.828Z,0.60
2022-09-26T22:03:32.111Z,0.50
2022-09-26T22:06:01.392Z,0.40
2022-09-26T22:08:31.008Z,0.47
2022-09-26T22:10:57.837Z,0.75
2022-09-26T22:13:24.483Z,0.98
2022-09-26T22:15:51.064Z,0.45
2022-09-26T22:18:17.649Z,0.50
2022-09-26T22:20:44.313Z,0.85
2022-09-26T22:23:13.666Z,0.70
2022-09-26T22:25:42.917Z,0.70
2022-09-26T22:28:09.702Z,0.40
2022-09-26T22:30:40.155Z,0.40
2022-09-26T22:33:06.824Z,0.55
2022-09-26T22:35:33.402Z,0.50
2022-09-26T22:37:59.983Z,0.60
2022-09-26T22:40:26.704Z,0.57
2022-09-26T22:42:53.382Z,0.40
2022-09-26T22:45:20.488Z,0.50
2022-09-26T22:47:47.245Z,0.40
2022-09-26T22:50:13.888Z,0.30
2022-09-26T22:52:40.488Z,0.50
2022-09-26T22:55:08.241Z,0.40
2022-09-26T22:57:35.101Z,0.45
2022-09-26T23:00:02.804Z,0.25
2022-09-26T23:02:29.445Z,0.32
2022-09-26T23:04:56.070Z,0.50
2022-09-26T23:07:22.710Z,0.50
2022-09-26T23:09:49.408Z,0.50
2022-09-26T23:12:16.153Z,0.50
2022-09-26T23:14:42.814Z,0.40
2022-09-26T23:17:09.703Z,0.55
2022-09-26T23:19:36.948Z,0.32
2022-09-26T23:22:04.068Z,0.50
2022-09-26T23:24:30.689Z,0.50
2022-09-26T23:26:59.061Z,0.70
2022-09-26T23:29:26.229Z,0.43
2022-09-26T23:31:53.240Z,0.82
2022-09-26T23:34:19.888Z,0.63
2022-09-26T23:36:46.546Z,0.57
2022-09-26T23:39:16.250Z,0.60
2022-09-26T23:41:42.940Z,0.65
2022-09-26T23:44:09.833Z,0.60
2022-09-26T23:46:36.670Z,0.30
2022-09-26T23:49:03.521Z,0.73
2022-09-26T23:51:30.320Z,0.60
2022-09-26T23:53:56.995Z,0.63
2022-09-26T23:56:23.725Z,0.57
2022-09-26T23:58:50.393Z,0.68
